Time;durP1;ratioP1;P1;durP2;ratioP2;P2;SDS_P1;SDS_P2;PMS_P1;PMS_P2;Temp;Humidity;BMP_temperature;BMP_pressure;BME280_temperature;BME280_humidity;BME280_pressure;Samples;Min_cycle;Max_cycle;Signal;HPM_P1;HPM_P2
2022/12/27 00:01:28;;;;;;;5.85;2.22;;;5.00;80.40;;;;;;5125141;27;20047;-73
2022/12/27 00:03:54;;;;;;;7.03;2.40;;;5.00;80.40;;;;;;5102930;27;20046;-74
2022/12/27 00:06:23;;;;;;;8.60;2.78;;;5.00;80.50;;;;;;5115585;27;20108;-73
2022/12/27 00:08:48;;;;;;;5.13;2.20;;;5.00;80.50;;;;;;5113800;27;20039;-73
2022/12/27 00:11:17;;;;;;;8.52;2.63;;;5.10;80.40;;;;;;5118442;28;20050;-73
2022/12/27 00:13:44;;;;;;;10.48;2.70;;;5.00;80.30;;;;;;5117237;28;20497;-73
2022/12/27 00:16:11;;;;;;;7.45;2.38;;;5.10;80.40;;;;;;5125766;28;20035;-73
2022/12/27 00:18:38;;;;;;;14.23;3.38;;;5.10;80.40;;;;;;5120605;28;20106;-73
2022/12/27 00:21:05;;;;;;;9.48;2.80;;;5.10;80.40;;;;;;5105094;28;20050;-72
2022/12/27 00:23:35;;;;;;;7.00;2.33;;;5.10;80.40;;;;;;5114560;28;20039;-73
2022/12/27 00:26:07;;;;;;;7.30;2.65;;;5.10;80.40;;;;;;5120550;28;20095;-73
2022/12/27 00:28:34;;;;;;;9.77;2.45;;;5.10;80.40;;;;;;5125958;28;20045;-73
2022/12/27 00:31:01;;;;;;;6.10;2.35;;;5.10;80.40;;;;;;5101321;28;20039;-72
2022/12/27 00:33:29;;;;;;;9.38;2.55;;;5.10;80.40;;;;;;5118454;28;20042;-72
2022/12/27 00:35:57;;;;;;;7.57;2.38;;;5.10;80.40;;;;;;5105054;28;20027;-73
2022/12/27 00:38:22;;;;;;;7.72;2.80;;;5.10;80.40;;;;;;5115507;28;20398;-73
2022/12/27 00:40:48;;;;;;;9.85;3.40;;;5.10;80.40;;;;;;5115280;28;20043;-73
2022/12/27 00:43:14;;;;;;;12.55;3.42;;;5.10;80.30;;;;;;5125073;28;20038;-73
2022/12/27 00:45:39;;;;;;;9.40;2.65;;;5.10;80.30;;;;;;5127047;28;20058;-73
2022/12/27 00:48:05;;;;;;;11.15;3.22;;;5.10;80.30;;;;;;5120816;27;20490;-73
2022/12/27 00:50:31;;;;;;;7.05;2.38;;;5.10;80.20;;;;;;5123358;27;20058;-73
2022/12/27 00:52:57;;;;;;;9.07;2.50;;;5.10;80.20;;;;;;5108929;27;20463;-73
2022/12/27 00:55:22;;;;;;;9.70;2.95;;;5.20;80.30;;;;;;5133476;27;20039;-73
2022/12/27 00:57:48;;;;;;;8.60;2.35;;;5.10;80.20;;;;;;5128136;27;20087;-73
2022/12/27 01:00:14;;;;;;;7.68;2.80;;;5.10;80.10;;;;;;5121681;27;20039;-73
2022/12/27 01:02:40;;;;;;;4.13;1.90;;;5.10;80.00;;;;;;5122947;27;20126;-74
2022/12/27 01:05:06;;;;;;;7.32;2.10;;;5.10;80.00;;;;;;5119203;27;20512;-73
2022/12/27 01:07:32;;;;;;;8.05;1.90;;;5.10;80.00;;;;;;5109105;27;20132;-73
2022/12/27 01:09:57;;;;;;;10.85;3.10;;;5.10;80.00;;;;;;5119897;27;20115;-73
2022/12/27 01:12:23;;;;;;;8.57;2.20;;;5.10;80.00;;;;;;5129426;27;20028;-72
2022/12/27 01:14:49;;;;;;;10.60;3.38;;;5.10;80.00;;;;;;5118660;27;20038;-73
2022/12/27 01:17:15;;;;;;;10.68;2.25;;;5.10;80.00;;;;;;5131799;27;20573;-73
2022/12/27 01:19:40;;;;;;;9.25;2.30;;;5.10;80.00;;;;;;5100922;27;20041;-73
2022/12/27 01:22:06;;;;;;;7.53;2.05;;;5.10;80.00;;;;;;5108526;27;20047;-73
2022/12/27 01:24:33;;;;;;;8.00;2.40;;;5.10;80.00;;;;;;5107251;27;20051;-72
2022/12/27 01:26:58;;;;;;;8.48;1.92;;;5.10;80.10;;;;;;5119985;27;20390;-73
2022/12/27 01:29:24;;;;;;;9.48;2.47;;;5.10;80.10;;;;;;5111237;27;20035;-73
2022/12/27 01:31:50;;;;;;;5.50;2.72;;;5.10;80.10;;;;;;5121236;27;20527;-73
2022/12/27 01:34:16;;;;;;;9.70;2.97;;;5.10;80.10;;;;;;5135767;27;20023;-73
2022/12/27 01:36:42;;;;;;;6.82;1.80;;;5.10;80.10;;;;;;5119685;27;20066;-72
2022/12/27 01:39:10;;;;;;;7.15;2.03;;;5.10;80.20;;;;;;5123786;27;20521;-73
2022/12/27 01:44:42;;;;;;;8.95;2.40;;;5.00;80.10;;;;;;5122764;27;20066;-73
2022/12/27 01:47:20;;;;;;;8.63;2.67;;;5.10;80.30;;;;;;5124282;27;20524;-73
2022/12/27 01:50:11;;;;;;;8.20;2.35;;;5.10;80.30;;;;;;5115086;27;20401;-73
2022/12/27 01:52:57;;;;;;;8.75;2.75;;;5.10;80.40;;;;;;5121072;27;20038;-72
2022/12/27 01:55:38;;;;;;;8.35;2.08;;;5.10;80.40;;;;;;5117339;27;20087;-73
2022/12/27 01:58:19;;;;;;;8.75;2.22;;;5.10;80.50;;;;;;5119229;27;20088;-72
2022/12/27 02:00:47;;;;;;;8.20;2.05;;;5.10;80.60;;;;;;5124355;27;20490;-72
2022/12/27 02:03:18;;;;;;;7.53;2.05;;;5.10;80.60;;;;;;5123194;27;20466;-71
2022/12/27 02:05:44;;;;;;;9.65;1.80;;;5.00;80.60;;;;;;5117193;27;20047;-71
2022/12/27 02:08:28;;;;;;;9.25;2.55;;;5.10;80.60;;;;;;5118261;27;20171;-71
2022/12/27 02:10:56;;;;;;;5.97;1.40;;;5.20;80.70;;;;;;5121413;27;20043;-72
2022/12/27 02:13:22;;;;;;;7.00;2.08;;;5.10;80.60;;;;;;5119806;27;20034;-73
2022/12/27 02:15:48;;;;;;;12.45;2.25;;;5.10;80.60;;;;;;5100820;27;20069;-71
2022/12/27 02:18:14;;;;;;;8.60;2.20;;;5.20;80.60;;;;;;5123570;27;20499;-72
2022/12/27 02:20:59;;;;;;;9.55;1.80;;;5.30;80.70;;;;;;5128706;27;20050;-72
2022/12/27 02:24:02;;;;;;;8.75;2.53;;;5.20;80.50;;;;;;5121607;27;20482;-72
2022/12/27 02:26:52;;;;;;;8.35;1.98;;;5.20;80.60;;;;;;5096322;27;20047;-72
2022/12/27 02:29:33;;;;;;;7.40;1.88;;;5.20;80.50;;;;;;5122489;27;20043;-72
2022/12/27 02:32:11;;;;;;;10.88;2.65;;;5.20;80.50;;;;;;5122423;27;20533;-71
2022/12/27 02:34:58;;;;;;;9.70;2.17;;;5.20;80.50;;;;;;5103815;27;20039;-71
2022/12/27 02:37:28;;;;;;;7.78;2.40;;;5.30;80.50;;;;;;5129696;27;20083;-72
2022/12/27 02:53:02;;;;;;;8.02;1.85;;;5.30;80.90;;;;;;5127406;27;20027;-71
2022/12/27 02:53:53;;;;;;;7.35;1.85;;;5.30;80.40;;;;;;5122407;27;20042;-71
2022/12/27 02:57:08;;;;;;;13.20;2.25;;;5.30;80.40;;;;;;5124878;27;20035;-71
2022/12/27 03:06:38;;;;;;;11.00;2.00;;;5.20;80.40;;;;;;5118526;27;20572;-72
2022/12/27 03:08:51;;;;;;;9.55;2.20;;;5.30;80.50;;;;;;5128663;27;20136;-72
2022/12/27 03:17:25;;;;;;;10.20;2.40;;;5.30;80.50;;;;;;5122994;27;20039;-71
2022/12/27 03:25:28;;;;;;;5.18;1.42;;;5.30;80.60;;;;;;5116841;27;20043;-72
2022/12/27 03:34:30;;;;;;;5.85;1.58;;;5.40;80.40;;;;;;5118834;27;20047;-71
2022/12/27 03:39:54;;;;;;;7.93;1.58;;;5.30;80.40;;;;;;5119158;27;20137;-71
2022/12/27 03:45:09;;;;;;;7.57;1.90;;;5.40;80.50;;;;;;5122481;27;20096;-71
2022/12/27 03:47:57;;;;;;;15.45;1.90;;;5.40;80.40;;;;;;5117828;27;20039;-72
2022/12/27 03:50:39;;;;;;;8.07;1.50;;;5.40;80.40;;;;;;5098833;27;20046;-72
2022/12/27 03:53:30;;;;;;;6.38;1.65;;;5.40;80.40;;;;;;5119025;27;20486;-72
2022/12/27 03:55:57;;;;;;;8.55;1.73;;;5.40;80.40;;;;;;5117030;27;20122;-68
2022/12/27 03:58:22;;;;;;;11.43;2.17;;;5.40;80.40;;;;;;5120051;27;20043;-68
2022/12/27 04:00:48;;;;;;;7.65;1.67;;;5.40;80.40;;;;;;5103204;27;20046;-69
2022/12/27 04:03:14;;;;;;;6.47;1.30;;;5.40;80.40;;;;;;5102086;27;20091;-69
2022/12/27 04:05:39;;;;;;;6.90;1.45;;;5.40;80.40;;;;;;5117347;27;20047;-67
2022/12/27 04:35:27;;;;;;;6.55;1.17;;;5.40;80.30;;;;;;5112211;27;20389;-68
2022/12/27 04:37:52;;;;;;;7.57;1.60;;;5.30;80.30;;;;;;5125574;27;20043;-68
2022/12/27 04:56:43;;;;;;;7.50;1.42;;;5.30;80.40;;;;;;5123969;27;20051;-68
2022/12/27 05:02:02;;;;;;;7.45;1.67;;;5.20;80.40;;;;;;5119044;27;20046;-68
2022/12/27 05:04:28;;;;;;;5.72;1.77;;;5.20;80.30;;;;;;5115551;27;20043;-68
2022/12/27 05:06:54;;;;;;;5.53;1.52;;;5.20;80.30;;;;;;5109964;27;20482;-68
2022/12/27 05:14:48;;;;;;;6.10;1.50;;;5.20;80.30;;;;;;5105767;27;20043;-71
2022/12/27 05:17:14;;;;;;;8.75;1.75;;;5.20;80.40;;;;;;5105204;27;20383;-67
2022/12/27 05:19:39;;;;;;;6.10;1.52;;;5.20;80.40;;;;;;5134483;27;20123;-67
2022/12/27 05:27:34;;;;;;;8.30;1.42;;;5.20;80.70;;;;;;5117240;27;20055;-67
2022/12/27 05:29:59;;;;;;;8.23;1.67;;;5.20;80.70;;;;;;5128262;27;20548;-68
2022/12/27 05:32:25;;;;;;;7.45;2.05;;;5.20;80.80;;;;;;5123324;27;20050;-68
2022/12/27 05:34:51;;;;;;;8.35;1.60;;;5.20;80.80;;;;;;5127718;27;20030;-67
2022/12/27 05:37:16;;;;;;;7.57;1.63;;;5.20;80.90;;;;;;5116103;27;20487;-67
2022/12/27 05:39:42;;;;;;;7.15;1.63;;;5.10;80.80;;;;;;5119753;27;20043;-68
2022/12/27 05:42:08;;;;;;;6.32;1.80;;;5.10;80.90;;;;;;5119026;27;20500;-68
2022/12/27 05:44:33;;;;;;;7.90;1.38;;;5.20;81.00;;;;;;5117837;27;20047;-68
2022/12/27 05:46:59;;;;;;;6.80;1.33;;;5.20;81.00;;;;;;5117967;27;20053;-68
2022/12/27 05:49:25;;;;;;;7.53;1.60;;;5.20;81.10;;;;;;5108153;27;20035;-68
2022/12/27 05:51:50;;;;;;;10.13;1.83;;;5.20;81.10;;;;;;5101229;27;20431;-68
2022/12/27 05:54:16;;;;;;;6.30;1.63;;;5.20;81.20;;;;;;5127065;27;20038;-68
2022/12/27 05:56:42;;;;;;;8.40;2.20;;;5.20;81.30;;;;;;5117418;27;20050;-68
2022/12/27 05:59:07;;;;;;;7.10;2.10;;;5.20;81.30;;;;;;5122009;27;20117;-68
2022/12/27 06:01:33;;;;;;;7.72;2.13;;;5.20;81.40;;;;;;5125069;27;20066;-68
2022/12/27 06:03:59;;;;;;;11.40;2.30;;;5.20;81.50;;;;;;5125347;27;20038;-68
2022/12/27 06:06:25;;;;;;;7.53;1.90;;;5.20;81.60;;;;;;5131301;27;20039;-68
2022/12/27 06:08:50;;;;;;;12.93;2.05;;;5.30;81.70;;;;;;5129250;27;20051;-67
2022/12/27 06:11:18;;;;;;;5.22;1.20;;;5.30;81.60;;;;;;5104835;27;20035;-67
2022/12/27 06:13:50;;;;;;;6.68;1.20;;;5.30;81.60;;;;;;5108426;27;20430;-68
2022/12/27 06:16:16;;;;;;;5.32;1.30;;;5.30;81.50;;;;;;5126725;27;20486;-68
2022/12/27 06:18:42;;;;;;;7.47;1.63;;;5.30;81.40;;;;;;5108131;27;20054;-68
2022/12/27 06:21:10;;;;;;;6.40;1.67;;;5.30;81.40;;;;;;5131205;27;20543;-67
2022/12/27 06:23:37;;;;;;;9.75;2.88;;;5.30;81.40;;;;;;5124619;27;20050;-68
2022/12/27 06:26:13;;;;;;;9.70;1.70;;;5.30;81.30;;;;;;5116927;27;20039;-68
2022/12/27 06:28:39;;;;;;;9.82;1.92;;;5.30;81.30;;;;;;5098282;27;20043;-68
2022/12/27 06:31:04;;;;;;;9.07;2.17;;;5.30;81.20;;;;;;5111244;27;20045;-68
2022/12/27 06:33:30;;;;;;;8.48;1.85;;;5.30;81.10;;;;;;5127113;27;20505;-71
2022/12/27 06:35:56;;;;;;;6.68;1.48;;;5.30;81.10;;;;;;5114596;27;20041;-72
2022/12/27 06:38:22;;;;;;;9.70;1.85;;;5.30;81.10;;;;;;5125371;27;20083;-71
2022/12/27 06:40:48;;;;;;;6.78;1.90;;;5.30;81.00;;;;;;5125704;27;20085;-71
2022/12/27 06:43:14;;;;;;;5.72;1.80;;;5.30;81.00;;;;;;5121350;27;20039;-71
2022/12/27 06:45:39;;;;;;;8.52;1.80;;;5.30;81.00;;;;;;5119432;27;20046;-71
2022/12/27 06:48:05;;;;;;;10.25;1.75;;;5.30;81.00;;;;;;5124713;27;20045;-72
2022/12/27 06:50:31;;;;;;;8.77;2.35;;;5.30;80.90;;;;;;5118659;27;20440;-72
2022/12/27 06:52:56;;;;;;;10.35;1.90;;;5.30;80.90;;;;;;5130245;27;20446;-72
2022/12/27 06:55:22;;;;;;;10.13;2.33;;;5.30;80.90;;;;;;5129064;27;20066;-71
2022/12/27 06:57:48;;;;;;;8.93;1.70;;;5.30;80.90;;;;;;5120841;27;20039;-71
2022/12/27 07:00:15;;;;;;;6.22;1.55;;;5.30;81.00;;;;;;5120350;27;20058;-71
2022/12/27 07:02:41;;;;;;;12.13;2.17;;;5.30;81.00;;;;;;5087238;27;20118;-72
2022/12/27 07:05:07;;;;;;;8.27;1.73;;;5.30;81.00;;;;;;5123368;27;20644;-72
2022/12/27 07:07:33;;;;;;;6.60;1.83;;;5.30;81.10;;;;;;5112175;27;20047;-72
2022/12/27 07:09:58;;;;;;;10.30;1.55;;;5.30;81.10;;;;;;5127741;27;20043;-72
2022/12/27 07:12:24;;;;;;;6.82;2.08;;;5.30;81.10;;;;;;5121081;27;20046;-72
2022/12/27 07:14:50;;;;;;;9.77;2.20;;;5.30;81.10;;;;;;5121498;27;20027;-72
2022/12/27 07:17:16;;;;;;;6.53;1.92;;;5.30;81.10;;;;;;5129243;27;20118;-72
2022/12/27 07:19:41;;;;;;;4.80;1.95;;;5.30;81.10;;;;;;5126537;27;20113;-73
2022/12/27 07:22:07;;;;;;;8.23;2.60;;;5.30;81.10;;;;;;5126017;27;20039;-72
2022/12/27 07:24:33;;;;;;;9.98;2.15;;;5.30;81.10;;;;;;5099577;27;20811;-71
2022/12/27 07:27:00;;;;;;;14.25;1.92;;;5.30;81.00;;;;;;5124444;27;20047;-72
2022/12/27 07:29:26;;;;;;;7.00;1.70;;;5.30;81.00;;;;;;5121381;27;20494;-71
2022/12/27 07:31:52;;;;;;;8.38;1.63;;;5.30;80.90;;;;;;5115802;27;20038;-72
2022/12/27 07:34:20;;;;;;;4.55;1.60;;;5.30;80.80;;;;;;5120990;27;20031;-71
2022/12/27 07:36:46;;;;;;;8.63;1.73;;;5.30;80.70;;;;;;5122254;27;20114;-71
2022/12/27 07:39:12;;;;;;;6.22;1.30;;;5.30;80.70;;;;;;5121832;27;20130;-72
2022/12/27 07:41:38;;;;;;;10.40;1.50;;;5.30;80.70;;;;;;5103039;27;20394;-71
2022/12/27 07:44:04;;;;;;;5.47;1.70;;;5.20;80.60;;;;;;5124257;27;20505;-71
2022/12/27 07:46:31;;;;;;;7.40;2.20;;;5.30;80.70;;;;;;5119783;27;20041;-72
2022/12/27 07:48:58;;;;;;;4.20;1.25;;;5.20;80.70;;;;;;5121433;27;20095;-73
2022/12/27 07:51:24;;;;;;;6.53;1.63;;;5.20;80.70;;;;;;5121292;27;20405;-73
2022/12/27 07:53:51;;;;;;;7.13;1.55;;;5.20;80.70;;;;;;5105852;27;20044;-72
2022/12/27 07:56:20;;;;;;;8.05;1.92;;;5.20;80.70;;;;;;5104940;27;20031;-72
2022/12/27 07:58:47;;;;;;;5.60;1.85;;;5.20;80.80;;;;;;5133278;27;20462;-72
2022/12/27 08:01:14;;;;;;;8.75;1.98;;;5.20;80.80;;;;;;5122424;27;20456;-72
2022/12/27 08:03:41;;;;;;;5.38;1.85;;;5.20;80.80;;;;;;5120353;27;20061;-72
2022/12/27 08:06:15;;;;;;;8.05;1.70;;;5.20;80.80;;;;;;5119802;27;20039;-72
2022/12/27 08:08:43;;;;;;;7.03;1.40;;;5.20;80.80;;;;;;5115597;27;20167;-73
2022/12/27 08:11:09;;;;;;;9.05;1.85;;;5.20;80.80;;;;;;5086100;27;20344;-73
2022/12/27 08:13:35;;;;;;;4.78;1.60;;;5.20;80.90;;;;;;5105035;27;20047;-73
2022/12/27 08:16:01;;;;;;;5.07;1.48;;;5.20;80.90;;;;;;5118507;27;20128;-72
2022/12/27 08:18:27;;;;;;;10.10;2.22;;;5.20;81.00;;;;;;5118123;27;20043;-72
2022/12/27 08:20:53;;;;;;;7.90;2.13;;;5.10;80.90;;;;;;5123249;28;20435;-72
2022/12/27 08:23:19;;;;;;;7.60;2.33;;;5.20;81.00;;;;;;5116552;28;20449;-72
2022/12/27 08:25:45;;;;;;;7.45;1.58;;;5.20;81.10;;;;;;5116069;28;20126;-72
2022/12/27 08:28:14;;;;;;;10.02;1.70;;;5.20;81.20;;;;;;5122725;28;20043;-72
2022/12/27 08:30:42;;;;;;;7.65;2.03;;;5.20;81.30;;;;;;5114535;28;20078;-71
2022/12/27 08:33:08;;;;;;;7.65;2.13;;;5.20;81.30;;;;;;5115387;28;20054;-71
2022/12/27 08:35:43;;;;;;;10.65;2.20;;;5.20;81.40;;;;;;5115434;28;20039;-71
2022/12/27 08:38:09;;;;;;;8.10;2.15;;;5.20;81.50;;;;;;5102125;28;20043;-71
2022/12/27 08:40:40;;;;;;;9.15;1.90;;;5.20;81.50;;;;;;5119626;28;20467;-72
2022/12/27 08:43:06;;;;;;;9.43;1.60;;;5.20;81.60;;;;;;5115716;28;20516;-68
2022/12/27 08:45:31;;;;;;;11.32;3.10;;;5.20;81.60;;;;;;5124179;28;20043;-68
2022/12/27 08:48:01;;;;;;;13.80;3.92;;;5.20;81.60;;;;;;5120419;28;20123;-68
2022/12/27 08:50:28;;;;;;;12.23;3.30;;;5.20;81.60;;;;;;5127419;28;21692;-68
2022/12/27 08:52:59;;;;;;;9.13;2.35;;;5.30;81.70;;;;;;5104937;28;20031;-67
2022/12/27 08:55:29;;;;;;;10.45;2.90;;;5.30;81.80;;;;;;5128919;28;20091;-67
2022/12/27 08:58:00;;;;;;;12.10;2.42;;;5.30;81.80;;;;;;5096428;28;20067;-67
2022/12/27 09:00:27;;;;;;;9.30;3.05;;;5.30;81.80;;;;;;5115552;28;20510;-68
2022/12/27 09:02:53;;;;;;;13.77;2.83;;;5.30;81.70;;;;;;5119883;28;20035;-68
2022/12/27 09:05:19;;;;;;;8.20;2.45;;;5.30;81.70;;;;;;5118780;28;20088;-68
2022/12/27 09:07:46;;;;;;;6.43;2.42;;;5.30;81.70;;;;;;5118117;28;20038;-68
2022/12/27 09:10:11;;;;;;;8.88;2.35;;;5.30;81.60;;;;;;5127918;27;20383;-68
2022/12/27 09:12:37;;;;;;;8.63;2.53;;;5.30;81.70;;;;;;5125099;27;20039;-68
2022/12/27 09:15:03;;;;;;;9.57;2.42;;;5.40;81.70;;;;;;5119453;27;20043;-68
2022/12/27 09:17:29;;;;;;;8.00;2.90;;;5.30;81.70;;;;;;5127214;27;20491;-68
2022/12/27 09:19:54;;;;;;;13.55;2.88;;;5.30;81.70;;;;;;5108985;27;20089;-68
2022/12/27 09:22:20;;;;;;;13.57;3.17;;;5.40;81.80;;;;;;5122694;27;20510;-69
2022/12/27 09:24:46;;;;;;;13.27;3.53;;;5.40;81.80;;;;;;5122706;27;20035;-69
2022/12/27 09:27:11;;;;;;;9.75;2.85;;;5.40;81.90;;;;;;5124574;27;20042;-68
2022/12/27 09:29:37;;;;;;;9.35;2.78;;;5.40;81.90;;;;;;5133112;27;20042;-69
2022/12/27 09:32:03;;;;;;;9.32;2.70;;;5.40;82.00;;;;;;5100452;27;20051;-69
2022/12/27 09:34:29;;;;;;;8.15;3.15;;;5.40;82.10;;;;;;5104779;27;20031;-69
2022/12/27 09:36:54;;;;;;;14.45;3.03;;;5.50;82.20;;;;;;5117492;27;20113;-69
2022/12/27 09:39:20;;;;;;;11.07;3.38;;;5.50;82.30;;;;;;5118229;27;20130;-69
2022/12/27 09:41:58;;;;;;;8.05;2.80;;;5.60;82.80;;;;;;5121827;27;20039;-68
2022/12/27 09:44:52;;;;;;;11.20;3.08;;;5.70;82.50;;;;;;5124705;27;20109;-69
2022/12/27 09:47:27;;;;;;;9.15;2.90;;;5.70;82.50;;;;;;5091363;27;20051;-69
2022/12/27 09:50:03;;;;;;;9.88;3.13;;;5.70;82.50;;;;;;5117527;27;20113;-69
2022/12/27 09:52:58;;;;;;;8.25;2.53;;;5.80;82.50;;;;;;5125592;27;20043;-69
2022/12/27 09:55:52;;;;;;;11.40;2.72;;;5.90;82.40;;;;;;5039096;27;20586;-68
2022/12/27 09:58:33;;;;;;;9.15;2.10;;;5.90;82.50;;;;;;5107721;27;20050;-69
2022/12/27 10:00:59;;;;;;;9.18;2.78;;;5.90;82.40;;;;;;5129283;27;20043;-68
2022/12/27 10:03:27;;;;;;;12.18;3.08;;;6.00;82.30;;;;;;5125177;27;20043;-69
2022/12/27 10:06:07;;;;;;;9.98;3.08;;;6.00;82.20;;;;;;5128812;27;20117;-68
2022/12/27 10:08:46;;;;;;;11.57;2.60;;;6.10;82.10;;;;;;5108006;27;20047;-69
2022/12/27 10:11:37;;;;;;;9.93;2.72;;;6.10;82.00;;;;;;5129689;27;20378;-68
2022/12/27 10:14:24;;;;;;;10.02;2.30;;;6.20;82.00;;;;;;5120948;27;20046;-69
2022/12/27 10:17:12;;;;;;;10.18;2.88;;;6.20;81.80;;;;;;5118432;27;20038;-67
2022/12/27 10:20:01;;;;;;;8.30;2.75;;;6.20;81.60;;;;;;5121677;27;20118;-67
2022/12/27 10:22:39;;;;;;;16.75;4.10;;;6.30;81.50;;;;;;5116861;27;20542;-67
2022/12/27 10:25:11;;;;;;;9.93;2.78;;;6.30;81.50;;;;;;5117333;27;20055;-67
2022/12/27 10:27:38;;;;;;;10.60;2.50;;;6.40;81.40;;;;;;5124052;27;20121;-68
2022/12/27 10:30:19;;;;;;;9.68;2.50;;;6.40;81.40;;;;;;5099524;27;20035;-69
2022/12/27 10:32:46;;;;;;;11.55;2.60;;;6.40;81.30;;;;;;5116809;27;20091;-68
2022/12/27 10:35:15;;;;;;;8.38;2.38;;;6.50;81.30;;;;;;5118540;27;20464;-68
2022/12/27 10:37:41;;;;;;;13.00;3.05;;;6.50;81.10;;;;;;5120455;27;20058;-68
2022/12/27 10:40:19;;;;;;;15.65;2.78;;;6.60;80.90;;;;;;5123125;27;20039;-67
2022/12/27 10:43:03;;;;;;;9.98;2.13;;;6.70;80.90;;;;;;5117585;27;20050;-67
2022/12/27 10:45:38;;;;;;;15.32;2.97;;;6.60;80.70;;;;;;5122909;27;20043;-67
2022/12/27 10:48:24;;;;;;;8.93;2.40;;;6.60;80.70;;;;;;5119184;27;20067;-67
2022/12/27 10:51:00;;;;;;;12.63;3.15;;;6.70;80.60;;;;;;5113770;27;20035;-67
2022/12/27 10:53:30;;;;;;;8.68;3.45;;;6.70;80.50;;;;;;5115267;27;20035;-67
2022/12/27 10:56:12;;;;;;;12.43;3.33;;;6.70;80.50;;;;;;5098630;27;20032;-68
2022/12/27 10:58:44;;;;;;;12.45;4.55;;;6.80;80.40;;;;;;5120206;27;20494;-68
2022/12/27 11:01:34;;;;;;;9.05;3.10;;;6.80;80.40;;;;;;5115341;27;20385;-67
2022/12/27 11:04:21;;;;;;;7.93;3.05;;;6.80;80.30;;;;;;5114077;27;20402;-67
2022/12/27 11:07:00;;;;;;;14.32;3.13;;;6.80;80.20;;;;;;5099265;27;20099;-68
2022/12/27 11:09:42;;;;;;;13.95;4.07;;;6.90;80.30;;;;;;5098615;27;20031;-68
2022/12/27 11:12:31;;;;;;;11.20;2.42;;;6.90;80.20;;;;;;5114232;27;20632;-68
2022/12/27 11:15:09;;;;;;;10.15;2.50;;;6.90;79.80;;;;;;5101277;27;20027;-68
2022/12/27 11:17:43;;;;;;;11.88;3.22;;;6.90;79.80;;;;;;5113265;27;20035;-67
2022/12/27 11:20:22;;;;;;;12.37;2.47;;;6.90;79.70;;;;;;5118069;27;20038;-68
2022/12/27 11:22:53;;;;;;;11.95;3.63;;;6.90;79.40;;;;;;5113988;27;20289;-68
2022/12/27 11:25:20;;;;;;;10.23;2.90;;;6.90;79.50;;;;;;5099667;27;20084;-68
2022/12/27 11:27:49;;;;;;;7.03;2.47;;;6.90;79.40;;;;;;5115744;27;21179;-67
2022/12/27 11:30:25;;;;;;;7.43;2.13;;;7.00;79.40;;;;;;5099253;27;20054;-67
2022/12/27 11:32:52;;;;;;;9.65;3.45;;;6.90;79.30;;;;;;5113571;27;20066;-68
2022/12/27 11:35:20;;;;;;;8.70;2.78;;;7.00;79.30;;;;;;5118746;27;20050;-68
2022/12/27 11:37:47;;;;;;;8.00;2.15;;;7.00;79.30;;;;;;5121733;27;20168;-67
2022/12/27 11:40:22;;;;;;;7.53;2.50;;;7.00;79.30;;;;;;5121385;27;20099;-67
2022/12/27 11:42:54;;;;;;;10.43;3.70;;;6.90;79.30;;;;;;5098127;27;20088;-68
2022/12/27 11:45:31;;;;;;;8.60;3.35;;;7.00;79.40;;;;;;5127728;27;20035;-68
2022/12/27 11:48:19;;;;;;;12.55;3.78;;;7.00;79.40;;;;;;5116094;27;20037;-73
2022/12/27 11:51:01;;;;;;;10.32;3.60;;;7.00;79.30;;;;;;5125793;27;20043;-71
2022/12/27 11:53:58;;;;;;;10.75;3.20;;;7.00;79.40;;;;;;5121591;27;20387;-71
2022/12/27 11:56:28;;;;;;;11.32;3.55;;;7.00;79.40;;;;;;5119079;27;20470;-71
2022/12/27 11:59:18;;;;;;;10.38;3.20;;;7.00;79.50;;;;;;5119366;27;20398;-71
2022/12/27 12:01:53;;;;;;;10.55;3.13;;;7.00;79.60;;;;;;5121618;27;20043;-71
2022/12/27 12:04:43;;;;;;;10.98;2.97;;;7.00;79.60;;;;;;5129015;27;20051;-71
2022/12/27 12:07:28;;;;;;;11.00;3.05;;;7.00;79.50;;;;;;5124366;27;20049;-71
2022/12/27 12:10:15;;;;;;;9.77;3.38;;;7.00;79.60;;;;;;5124309;27;20043;-72
2022/12/27 12:13:05;;;;;;;11.15;3.50;;;7.00;79.60;;;;;;5117071;27;20607;-72
2022/12/27 12:15:46;;;;;;;11.90;2.88;;;7.00;79.50;;;;;;5115292;27;20047;-72
2022/12/27 12:18:49;;;;;;;10.80;2.92;;;7.10;79.70;;;;;;5125842;27;20115;-67
2022/12/27 12:21:30;;;;;;;11.75;3.50;;;7.00;79.60;;;;;;5120395;28;20039;-67
2022/12/27 12:25:09;;;;;;;9.98;3.70;;;7.10;79.70;;;;;;5120384;28;20394;-66
2022/12/27 12:27:57;;;;;;;10.88;4.03;;;7.10;79.50;;;;;;4974749;28;20133;-67
2022/12/27 12:30:48;;;;;;;10.20;3.28;;;7.10;79.70;;;;;;5029385;28;20543;-68
2022/12/27 12:33:51;;;;;;;9.90;3.65;;;7.00;79.60;;;;;;5106845;28;20050;-68
2022/12/27 12:36:19;;;;;;;8.07;3.10;;;7.00;79.60;;;;;;5097545;28;20083;-68
2022/12/27 12:38:55;;;;;;;10.63;4.10;;;7.10;79.80;;;;;;5110397;28;20052;-68
2022/12/27 12:41:43;;;;;;;11.30;3.63;;;7.10;79.90;;;;;;5110975;28;20043;-68
2022/12/27 12:44:24;;;;;;;10.13;3.80;;;7.10;79.90;;;;;;5113982;28;20040;-68
2022/12/27 12:47:00;;;;;;;10.73;3.15;;;7.10;80.00;;;;;;5114648;28;20044;-68
2022/12/27 12:49:37;;;;;;;13.15;3.47;;;7.10;80.00;;;;;;5114031;28;20048;-68
2022/12/27 12:52:23;;;;;;;8.40;3.60;;;7.10;80.00;;;;;;5109385;27;21616;-68
2022/12/27 12:54:58;;;;;;;12.80;4.88;;;7.10;80.00;;;;;;5113636;27;20086;-68
2022/12/27 12:57:49;;;;;;;11.60;3.30;;;7.10;80.10;;;;;;5121535;27;20554;-67
2022/12/27 13:00:41;;;;;;;12.95;4.65;;;7.10;80.20;;;;;;5116115;27;20047;-67
2022/12/27 13:03:28;;;;;;;14.60;4.18;;;7.10;80.20;;;;;;5125063;27;20184;-68
2022/12/27 13:06:25;;;;;;;9.30;3.80;;;7.20;80.30;;;;;;5124587;27;20047;-67
2022/12/27 13:09:02;;;;;;;12.10;4.25;;;7.20;80.20;;;;;;5065394;27;20043;-68
2022/12/27 13:11:42;;;;;;;11.98;4.32;;;7.20;80.40;;;;;;5119895;27;20031;-68
2022/12/27 13:14:45;;;;;;;16.42;4.68;;;7.20;80.40;;;;;;5122816;27;20130;-68
2022/12/27 13:17:45;;;;;;;13.18;3.88;;;7.20;80.40;;;;;;5101738;27;20043;-68
2022/12/27 13:20:48;;;;;;;11.98;4.00;;;7.20;80.30;;;;;;5118917;27;20047;-68
2022/12/27 13:23:41;;;;;;;8.35;3.75;;;7.20;80.30;;;;;;5122995;27;20041;-68
2022/12/27 13:26:26;;;;;;;12.35;4.03;;;7.30;80.40;;;;;;5122249;27;20039;-66
2022/12/27 13:29:13;;;;;;;11.85;5.03;;;7.30;80.30;;;;;;5103969;27;20062;-66
2022/12/27 13:32:03;;;;;;;10.05;4.22;;;7.30;80.40;;;;;;5118760;27;20050;-66
2022/12/27 13:34:44;;;;;;;10.68;4.13;;;7.30;80.30;;;;;;5122344;27;20096;-67
2022/12/27 13:37:21;;;;;;;13.40;6.05;;;7.30;80.20;;;;;;5107756;27;20069;-67
2022/12/27 13:39:59;;;;;;;13.90;5.93;;;7.40;80.70;;;;;;5123557;27;20396;-67
2022/12/27 13:42:53;;;;;;;13.98;5.38;;;7.40;80.30;;;;;;5123140;27;20062;-67
2022/12/27 13:45:46;;;;;;;10.45;4.50;;;7.40;80.20;;;;;;5124314;27;20433;-68
2022/12/27 13:48:42;;;;;;;10.70;5.00;;;7.40;80.30;;;;;;5142736;27;20070;-67
2022/12/27 13:51:38;;;;;;;11.88;5.20;;;7.40;80.20;;;;;;5122521;27;20051;-67
2022/12/27 13:54:16;;;;;;;15.23;5.70;;;7.40;80.20;;;;;;5124220;27;20107;-67
2022/12/27 13:56:53;;;;;;;11.85;6.55;;;7.40;80.20;;;;;;5121438;27;20058;-67
2022/12/27 13:59:35;;;;;;;14.65;6.63;;;7.40;80.20;;;;;;5123892;27;20043;-67
2022/12/27 14:02:22;;;;;;;12.38;5.82;;;7.50;80.30;;;;;;5114026;27;20031;-67
2022/12/27 14:04:54;;;;;;;10.40;6.05;;;7.40;80.20;;;;;;5121828;27;20039;-67
2022/12/27 14:07:45;;;;;;;12.70;6.22;;;7.40;80.30;;;;;;5116606;27;20074;-67
2022/12/27 14:10:39;;;;;;;13.13;6.82;;;7.50;80.40;;;;;;5121923;27;20554;-67
2022/12/27 14:13:09;;;;;;;12.00;7.00;;;7.50;80.40;;;;;;5122213;27;20069;-67
2022/12/27 14:15:38;;;;;;;12.02;6.30;;;7.50;80.40;;;;;;5120394;27;20117;-67
2022/12/27 14:18:07;;;;;;;13.52;6.93;;;7.40;80.30;;;;;;5123287;27;20505;-71
2022/12/27 14:20:53;;;;;;;11.90;6.45;;;7.50;80.30;;;;;;5124462;27;20054;-72
2022/12/27 14:23:55;;;;;;;13.32;6.20;;;7.40;80.10;;;;;;5125622;27;20046;-74
2022/12/27 14:26:27;;;;;;;11.43;5.85;;;7.40;80.10;;;;;;5121685;27;20489;-72
2022/12/27 14:29:17;;;;;;;13.80;6.22;;;7.40;80.20;;;;;;5121649;27;20502;-73
2022/12/27 14:32:13;;;;;;;11.20;6.30;;;7.40;80.20;;;;;;5137388;27;20478;-72
2022/12/27 14:35:16;;;;;;;11.82;6.45;;;7.40;80.00;;;;;;5121256;27;20031;-73
2022/12/27 14:37:42;;;;;;;9.65;6.00;;;7.40;80.10;;;;;;5123373;27;20046;-72
2022/12/27 14:40:20;;;;;;;9.75;5.90;;;7.40;80.20;;;;;;5104500;27;20158;-72
2022/12/27 14:43:34;;;;;;;9.52;6.18;;;7.40;80.20;;;;;;5124818;27;20051;-73
2022/12/27 14:46:22;;;;;;;12.50;6.43;;;7.40;80.20;;;;;;5122875;27;20069;-70
2022/12/27 14:49:25;;;;;;;10.75;6.13;;;7.30;80.30;;;;;;5121441;27;20057;-71
2022/12/27 14:52:00;;;;;;;12.07;6.00;;;7.30;80.40;;;;;;5122053;27;20053;-71
2022/12/27 14:55:03;;;;;;;11.55;6.57;;;7.30;80.50;;;;;;5123150;27;20077;-72
2022/12/27 14:58:03;;;;;;;12.00;6.90;;;7.30;80.50;;;;;;5121352;27;20058;-68
2022/12/27 15:00:52;;;;;;;13.77;6.75;;;7.30;80.50;;;;;;5106717;27;20109;-68
2022/12/27 15:03:52;;;;;;;14.10;7.03;;;7.30;80.60;;;;;;5120310;27;20050;-66
2022/12/27 15:06:46;;;;;;;10.63;7.00;;;7.30;80.60;;;;;;5121610;27;20053;-66
2022/12/27 15:09:36;;;;;;;13.02;7.18;;;7.20;80.60;;;;;;5123326;27;20075;-67
2022/12/27 15:12:28;;;;;;;9.63;6.50;;;7.20;80.60;;;;;;5121279;27;20035;-68